Time;durP1;ratioP1;P1;durP2;ratioP2;P2;SDS_P1;SDS_P2;PMS_P1;PMS_P2;Temp;Humidity;BMP_temperature;BMP_pressure;BME280_temperature;BME280_humidity;BME280_pressure;Samples;Min_cycle;Max_cycle;Signal;HPM_P1;HPM_P2
2021/07/21 00:00:51;;;;;;;16.55;14.70;;;;;;;23.31;100.00;100494.89;1698429;83;21497;-78
2021/07/21 00:03:19;;;;;;;16.93;14.80;;;;;;;23.29;100.00;100497.41;1697837;83;21105;-85
2021/07/21 00:05:46;;;;;;;15.70;14.00;;;;;;;23.25;100.00;100507.55;1681809;84;21147;-79
2021/07/21 00:08:14;;;;;;;15.28;13.70;;;;;;;23.24;100.00;100505.91;1680183;83;21059;-82
2021/07/21 00:10:44;;;;;;;15.72;13.48;;;;;;;23.24;100.00;100506.41;1699266;82;21571;-82
2021/07/21 00:13:32;;;;;;;16.52;14.13;;;;;;;23.24;100.00;100509.88;1692294;83;21006;-80
2021/07/21 00:18:32;;;;;;;19.60;14.47;;;;;;;23.20;100.00;100494.03;1694366;83;21143;-91
2021/07/21 00:20:58;;;;;;;19.98;14.18;;;;;;;23.17;100.00;100499.70;1657451;84;21442;-76
2021/07/21 00:23:24;;;;;;;17.05;13.65;;;;;;;23.15;100.00;100503.88;1657106;84;21036;-82
2021/07/21 00:25:51;;;;;;;18.57;14.50;;;;;;;23.13;100.00;100505.08;1682663;83;21012;-75
2021/07/21 00:28:18;;;;;;;16.15;14.45;;;;;;;23.10;100.00;100507.57;1688640;83;20956;-80
2021/07/21 00:30:46;;;;;;;16.67;14.23;;;;;;;23.07;100.00;100507.94;1696030;83;21148;-88
2021/07/21 00:33:15;;;;;;;16.07;14.07;;;;;;;23.06;100.00;100508.97;1657185;84;20942;-81
2021/07/21 00:35:44;;;;;;;15.63;13.80;;;;;;;23.07;100.00;100507.15;1685920;83;20998;-75
2021/07/21 00:38:12;;;;;;;15.88;13.95;;;;;;;23.07;100.00;100511.12;1686725;83;21057;-83
2021/07/21 00:40:39;;;;;;;20.40;14.25;;;;;;;23.05;100.00;100512.61;1704098;83;21011;-77
2021/07/21 00:43:06;;;;;;;17.62;13.95;;;;;;;23.05;100.00;100511.79;1692477;83;21706;-87
2021/07/21 00:45:33;;;;;;;14.75;13.25;;;;;;;23.04;100.00;100503.52;1631871;85;21117;-85
2021/07/21 00:48:00;;;;;;;19.25;13.40;;;;;;;23.01;100.00;100511.33;1681522;84;21184;-80
2021/07/21 00:50:27;;;;;;;24.12;12.90;;;;;;;22.98;100.00;100510.38;1682621;82;21007;-83
2021/07/21 00:52:53;;;;;;;14.50;12.13;;;;;;;22.96;100.00;100510.25;1689229;83;21180;-84
2021/07/21 00:55:23;;;;;;;17.98;12.43;;;;;;;22.93;100.00;100511.45;1710029;82;21189;-87
2021/07/21 00:57:52;;;;;;;15.05;11.70;;;;;;;22.90;100.00;100503.88;1696113;83;21050;-81
2021/07/21 01:00:19;;;;;;;12.75;11.50;;;;;;;22.87;100.00;100510.87;1663177;83;21062;-81
2021/07/21 01:02:50;;;;;;;13.85;11.83;;;;;;;22.84;100.00;100510.41;1681537;83;21735;-81
2021/07/21 01:05:26;;;;;;;14.85;11.45;;;;;;;22.81;100.00;100513.43;1691243;83;21055;-80
2021/07/21 01:07:53;;;;;;;12.45;11.15;;;;;;;22.77;100.00;100510.33;1660811;84;21142;-79
2021/07/21 01:10:22;;;;;;;13.45;11.45;;;;;;;22.74;100.00;100506.72;1681634;83;21530;-80
2021/07/21 01:13:12;;;;;;;11.53;10.32;;;;;;;22.70;100.00;100514.70;1685053;83;21651;-79
2021/07/21 01:16:05;;;;;;;13.58;11.15;;;;;;;;;;1696732;83;21101;-83
2021/07/21 01:19:05;;;;;;;13.93;11.00;;;;;;;22.66;100.00;100515.56;1710599;81;20959;-83
2021/07/21 01:22:01;;;;;;;12.70;10.93;;;;;;;22.64;100.00;100526.81;1686673;84;21138;-88
2021/07/21 01:25:08;;;;;;;13.05;10.90;;;;;;;22.62;100.00;100517.42;1696193;83;20944;-82
2021/07/21 01:27:47;;;;;;;12.73;10.95;;;;;;;22.61;100.00;100521.05;1690808;83;21618;-88
2021/07/21 01:30:28;;;;;;;14.10;10.45;;;;;;;22.58;100.00;100518.78;1688012;83;20970;-78
2021/07/21 01:33:10;;;;;;;13.70;10.30;;;;;;;22.55;100.00;100515.17;1665739;85;20972;-85
2021/07/21 01:35:46;;;;;;;11.33;10.23;;;;;;;22.53;100.00;100520.63;1680507;83;21199;-85
2021/07/21 01:38:18;;;;;;;11.48;10.10;;;;;;;22.51;100.00;100513.89;1687069;83;21104;-82
2021/07/21 01:40:51;;;;;;;11.75;10.00;;;;;;;22.48;100.00;100523.02;1709207;81;21506;-78
2021/07/21 01:43:21;;;;;;;11.73;10.08;;;;;;;22.47;100.00;100520.53;1715914;81;21002;-79
2021/07/21 01:45:51;;;;;;;11.05;9.73;;;;;;;22.44;100.00;100523.55;1717840;81;21014;-81
2021/07/21 01:48:19;;;;;;;12.07;10.53;;;;;;;22.42;100.00;100525.56;1688305;82;21165;-85
2021/07/21 01:50:46;;;;;;;11.50;9.88;;;;;;;22.39;100.00;100524.60;1685264;83;21004;-79
2021/07/21 01:53:12;;;;;;;11.45;10.23;;;;;;;22.38;100.00;100525.59;1646910;83;21762;-83
2021/07/21 01:55:40;;;;;;;11.65;9.33;;;;;;;22.37;100.00;100525.30;1614286;86;21217;-84
2021/07/21 01:58:09;;;;;;;12.23;10.32;;;;;;;22.35;100.00;100528.59;1658859;86;21240;-83
2021/07/21 02:00:52;;;;;;;11.63;10.03;;;;;;;22.32;100.00;100528.95;1602562;89;21177;-79
2021/07/21 02:03:19;;;;;;;13.10;10.20;;;;;;;22.29;100.00;100531.97;1689292;81;20999;-79
2021/07/21 02:05:49;;;;;;;10.70;9.15;;;;;;;22.25;100.00;100538.11;1704186;81;21026;-78
2021/07/21 02:08:20;;;;;;;11.20;9.33;;;;;;;22.22;100.00;100532.36;1698940;81;21003;-79
2021/07/21 02:10:49;;;;;;;12.33;8.65;;;;;;;22.18;100.00;100536.38;1695970;82;21602;-83
2021/07/21 02:13:19;;;;;;;10.78;8.15;;;;;;;22.14;100.00;100542.52;1657216;83;20948;-80
2021/07/21 02:15:52;;;;;;;12.58;8.60;;;;;;;22.12;100.00;100543.17;1661281;84;21106;-86
2021/07/21 02:18:21;;;;;;;11.18;8.68;;;;;;;22.11;100.00;100546.31;1688898;83;21365;-79
2021/07/21 02:20:48;;;;;;;9.75;7.75;;;;;;;22.10;100.00;100546.52;1693917;83;21034;-78
2021/07/21 02:23:18;;;;;;;9.58;8.43;;;;;;;22.10;100.00;100554.44;1695136;83;20991;-79
2021/07/21 02:25:45;;;;;;;12.40;8.30;;;;;;;22.05;100.00;100561.56;1670894;84;21186;-77
2021/07/21 02:28:14;;;;;;;10.13;7.67;;;;;;;22.04;100.00;100563.91;1691616;83;21003;-88
2021/07/21 02:30:47;;;;;;;8.58;7.60;;;;;;;22.03;100.00;100552.18;1698208;83;20979;-80
2021/07/21 02:33:27;;;;;;;11.75;7.10;;;;;;;22.00;100.00;100557.33;1661190;84;21035;-77
2021/07/21 02:35:55;;;;;;;7.83;6.60;;;;;;;21.94;100.00;100556.72;1689868;83;20973;-85
2021/07/21 02:38:24;;;;;;;11.57;7.30;;;;;;;21.88;100.00;100561.36;1696841;83;21173;-85
2021/07/21 02:40:52;;;;;;;9.70;7.03;;;;;;;21.85;100.00;100567.48;1688492;82;21552;-82
2021/07/21 02:43:21;;;;;;;5.20;4.80;;;;;;;21.84;100.00;100577.23;1697236;82;21495;-83
2021/07/21 02:45:49;;;;;;;6.20;4.35;;;;;;;21.80;100.00;100564.53;1690078;83;21006;-77
2021/07/21 02:48:16;;;;;;;6.15;3.70;;;;;;;21.72;100.00;100577.81;1680594;83;22162;-78
2021/07/21 02:50:48;;;;;;;5.17;3.15;;;;;;;21.64;100.00;100578.18;1686087;83;21161;-80
2021/07/21 02:53:22;;;;;;;3.08;2.77;;;;;;;21.58;100.00;100573.59;1694049;83;21015;-80
2021/07/21 02:56:02;;;;;;;2.72;2.27;;;;;;;21.52;100.00;100572.15;1649385;83;21125;-80
2021/07/21 02:59:01;;;;;;;3.58;2.65;;;;;;;21.46;100.00;100572.84;1671742;83;21559;-84
2021/07/21 03:01:29;;;;;;;3.17;2.20;;;;;;;21.42;100.00;100576.33;1696316;83;21150;-81
2021/07/21 03:03:56;;;;;;;3.62;2.17;;;;;;;21.38;100.00;100584.78;1690383;83;21158;-80
2021/07/21 03:06:25;;;;;;;7.28;2.22;;;;;;;21.32;99.62;100596.00;1665091;84;21019;-82
2021/07/21 03:08:59;;;;;;;5.62;2.20;;;;;;;21.22;96.65;100598.84;1689896;83;21748;-78
2021/07/21 03:11:37;;;;;;;5.92;1.80;;;;;;;21.13;95.66;100605.16;1673164;83;21453;-86
2021/07/21 03:14:07;;;;;;;4.62;2.08;;;;;;;21.06;95.51;100609.42;1664760;84;21090;-79
2021/07/21 03:16:46;;;;;;;2.50;2.08;;;;;;;21.02;95.50;100606.34;1695416;83;21158;-83
2021/07/21 03:19:24;;;;;;;2.50;2.30;;;;;;;21.01;95.48;100609.95;1691909;84;21049;-81
2021/07/21 03:21:52;;;;;;;2.90;2.40;;;;;;;21.00;95.55;100615.39;1672715;83;21019;-81
2021/07/21 03:24:22;;;;;;;3.20;2.40;;;;;;;21.00;95.42;100618.85;1651949;85;21051;-82
2021/07/21 03:27:00;;;;;;;4.62;3.45;;;;;;;20.97;95.75;100623.16;1659765;83;21205;-81
2021/07/21 03:29:31;;;;;;;3.60;3.30;;;;;;;20.90;93.80;100618.73;1678281;84;21163;-78
2021/07/21 03:32:00;;;;;;;4.15;3.47;;;;;;;20.78;93.95;100631.92;1691254;83;20996;-76
2021/07/21 03:34:27;;;;;;;10.08;3.70;;;;;;;20.70;94.50;100636.73;1696470;84;21020;-79
2021/07/21 03:36:56;;;;;;;4.65;3.35;;;;;;;20.65;92.77;100636.39;1669948;83;21066;-83
2021/07/21 03:39:41;;;;;;;3.95;3.30;;;;;;;20.57;92.62;100642.52;1626456;86;21025;-81
2021/07/21 03:42:13;;;;;;;7.17;4.05;;;;;;;20.49;92.69;100645.63;1687078;83;21135;-80
2021/07/21 03:44:41;;;;;;;3.95;3.50;;;;;;;20.45;92.68;100650.93;1664338;84;21027;-78
2021/07/21 03:47:08;;;;;;;4.10;3.70;;;;;;;20.42;92.86;100656.02;1691159;83;22882;-77
2021/07/21 03:49:35;;;;;;;5.33;3.87;;;;;;;20.43;93.14;100647.61;1691487;83;21239;-81
2021/07/21 03:52:04;;;;;;;7.53;4.10;;;;;;;20.44;92.75;100654.05;1689969;83;21007;-77
2021/07/21 03:54:37;;;;;;;4.50;4.03;;;;;;;20.44;92.77;100658.01;1678274;83;21152;-81
2021/07/21 03:57:22;;;;;;;5.03;4.30;;;;;;;20.43;91.90;100668.21;1688885;83;20970;-82
2021/07/21 03:59:50;;;;;;;6.15;4.50;;;;;;;20.41;91.69;100678.11;1664778;84;21050;-82
2021/07/21 04:02:17;;;;;;;7.00;4.78;;;;;;;20.42;90.74;100674.98;1698992;83;21019;-83
2021/07/21 04:04:46;;;;;;;6.37;4.72;;;;;;;20.42;90.24;100686.33;1649070;84;21245;-80
2021/07/21 04:07:16;;;;;;;6.03;4.67;;;;;;;20.45;89.89;100682.56;1688341;83;22037;-85
2021/07/21 04:09:52;;;;;;;6.35;4.62;;;;;;;20.43;89.15;100682.71;1686297;82;20982;-80
2021/07/21 04:12:20;;;;;;;10.63;5.45;;;;;;;20.40;89.56;100692.27;1624759;86;21604;-82
2021/07/21 04:14:52;;;;;;;11.20;4.90;;;;;;;20.42;89.92;100692.91;1691576;83;24843;-80
2021/07/21 04:17:20;;;;;;;8.20;4.50;;;;;;;20.48;89.47;100696.73;1697705;81;21085;-82
2021/07/21 04:19:48;;;;;;;8.88;4.50;;;;;;;20.49;89.11;100689.96;1711679;81;21825;-79
2021/07/21 04:22:15;;;;;;;8.45;5.08;;;;;;;20.56;89.19;100696.72;1714289;82;20996;-77
2021/07/21 04:24:45;;;;;;;10.60;4.78;;;;;;;20.60;88.30;100688.81;1705474;83;21002;-79
2021/07/21 04:27:12;;;;;;;5.80;4.92;;;;;;;20.59;87.04;100693.27;1666783;84;20960;-80
2021/07/21 04:29:42;;;;;;;6.22;4.78;;;;;;;20.58;86.81;100698.72;1671312;84;20948;-81
2021/07/21 04:32:09;;;;;;;7.22;5.17;;;;;;;20.59;87.38;100693.27;1694563;83;21840;-81
2021/07/21 04:34:38;;;;;;;8.95;5.47;;;;;;;20.65;87.28;100701.00;1681819;83;22856;-76
2021/07/21 04:37:05;;;;;;;6.28;5.05;;;;;;;20.68;86.67;100698.55;1642139;83;21065;-78
2021/07/21 04:39:40;;;;;;;7.55;5.47;;;;;;;20.63;86.63;100694.25;1687443;83;21071;-81
2021/07/21 04:42:26;;;;;;;8.38;6.05;;;;;;;20.56;87.15;100693.59;1673197;85;21088;-81
2021/07/21 04:44:55;;;;;;;7.12;5.65;;;;;;;20.52;87.27;100701.49;1677256;85;21165;-77
2021/07/21 04:47:24;;;;;;;15.43;5.67;;;;;;;20.49;87.83;100706.27;1653822;84;20967;-82
2021/07/21 04:49:52;;;;;;;8.00;4.90;;;;;;;20.47;87.51;100710.89;1684023;83;21185;-78
2021/07/21 04:52:20;;;;;;;8.85;5.17;;;;;;;20.44;86.35;100708.58;1697466;83;21578;-79
2021/07/21 04:54:47;;;;;;;6.28;4.70;;;;;;;20.37;86.05;100703.14;1694158;83;21092;-81
2021/07/21 04:57:15;;;;;;;12.28;5.33;;;;;;;20.37;86.40;100706.27;1665760;85;21163;-82
2021/07/21 04:59:44;;;;;;;6.20;4.58;;;;;;;20.39;86.02;100705.11;1687968;83;21141;-86
2021/07/21 05:02:11;;;;;;;13.65;5.20;;;;;;;20.41;85.65;100707.59;1657802;83;21620;-78
2021/07/21 05:04:37;;;;;;;8.95;4.92;;;;;;;20.44;85.54;100707.27;1666514;84;21086;-80
2021/07/21 05:07:06;;;;;;;15.95;5.58;;;;;;;20.51;85.31;100708.27;1680671;83;21059;-82
2021/07/21 05:09:35;;;;;;;6.03;4.70;;;;;;;20.56;85.36;100707.27;1711266;81;21146;-79
2021/07/21 05:12:04;;;;;;;6.35;4.40;;;;;;;20.57;84.37;100708.92;1690287;83;21015;-78
2021/07/21 05:14:34;;;;;;;10.68;4.55;;;;;;;20.48;83.59;100708.59;1693745;83;21071;-81
2021/07/21 05:17:11;;;;;;;10.50;5.28;;;;;;;20.35;83.76;100709.08;1668809;83;21087;-86
2021/07/21 05:19:38;;;;;;;12.60;5.20;;;;;;;20.25;84.09;100718.91;1695405;83;21000;-84
2021/07/21 05:22:07;;;;;;;7.92;4.85;;;;;;;20.17;84.42;100712.29;1692272;83;21861;-78
2021/07/21 05:24:35;;;;;;;7.83;5.10;;;;;;;20.13;85.40;100714.94;1705668;83;21595;-81
2021/07/21 05:27:04;;;;;;;11.53;5.25;;;;;;;20.16;84.88;100713.78;1696850;83;21374;-78
2021/07/21 05:29:32;;;;;;;13.05;5.55;;;;;;;20.21;85.23;100724.16;1684493;83;21014;-80
2021/07/21 05:32:01;;;;;;;12.78;4.95;;;;;;;20.29;84.07;100718.95;1671442;83;21472;-82
2021/07/21 05:34:28;;;;;;;12.15;5.47;;;;;;;20.39;84.06;100731.98;1662185;83;21112;-77
2021/07/21 05:37:11;;;;;;;11.43;5.80;;;;;;;20.46;83.15;100734.28;1619353;87;21636;-84
2021/07/21 05:39:50;;;;;;;11.78;5.53;;;;;;;20.45;81.61;100737.40;1650017;83;21109;-79
2021/07/21 05:42:17;;;;;;;14.80;4.90;;;;;;;20.39;82.00;100737.25;1690081;83;21440;-83
2021/07/21 05:44:46;;;;;;;13.03;5.35;;;;;;;20.43;81.99;100740.70;1662635;83;21053;-80
2021/07/21 05:47:12;;;;;;;11.00;6.75;;;;;;;20.49;82.29;100738.73;1697422;82;21151;-77
2021/07/21 05:49:39;;;;;;;9.73;5.53;;;;;;;20.58;82.14;100730.36;1692840;83;21447;-79
2021/07/21 05:52:10;;;;;;;8.57;4.80;;;;;;;20.65;80.31;100737.92;1685440;83;21086;-76
2021/07/21 05:54:40;;;;;;;13.38;5.25;;;;;;;20.65;80.39;100730.50;1689542;83;20995;-81
2021/07/21 05:57:08;;;;;;;7.80;5.62;;;;;;;20.66;79.82;100732.98;1695942;83;21593;-81
2021/07/21 05:59:36;;;;;;;8.85;6.22;;;;;;;20.67;80.14;100733.81;1685381;83;21788;-80
2021/07/21 06:02:03;;;;;;;10.55;6.00;;;;;;;20.67;79.66;100727.22;1704427;83;20910;-82
2021/07/21 06:04:33;;;;;;;12.78;5.05;;;;;;;20.68;79.73;100732.84;1697377;83;21126;-84
2021/07/21 06:07:18;;;;;;;12.30;5.28;;;;;;;20.67;79.38;100738.59;1695510;83;21026;-81
2021/07/21 06:10:04;;;;;;;10.98;5.72;;;;;;;20.67;79.75;100732.01;1699275;83;21032;-86
2021/07/21 06:12:33;;;;;;;10.90;5.33;;;;;;;20.71;79.89;100731.98;1687915;83;21157;-84
2021/07/21 06:15:04;;;;;;;15.72;6.25;;;;;;;20.77;79.21;100738.44;1686975;83;20891;-77
2021/07/21 06:17:33;;;;;;;9.25;5.72;;;;;;;20.84;78.90;100736.27;1657412;86;21003;-81
2021/07/21 06:20:06;;;;;;;10.35;5.00;;;;;;;20.93;78.47;100745.03;1690070;83;21079;-84
2021/07/21 06:22:39;;;;;;;7.53;5.20;;;;;;;20.99;77.96;100733.81;1690438;83;21539;-82
2021/07/21 06:25:29;;;;;;;6.97;5.10;;;;;;;21.05;77.69;100734.45;1679627;83;21157;-79
2021/07/21 06:28:01;;;;;;;9.13;5.15;;;;;;;21.18;77.77;100737.45;1689565;83;21029;-78
2021/07/21 06:30:28;;;;;;;11.55;5.28;;;;;;;21.29;77.46;100736.25;1699047;81;21018;-84
2021/07/21 06:32:55;;;;;;;8.53;5.58;;;;;;;21.38;77.08;100739.22;1713528;81;20932;-82
2021/07/21 06:35:22;;;;;;;11.40;5.60;;;;;;;21.51;77.21;100740.81;1694301;82;20946;-81
2021/07/21 06:37:50;;;;;;;16.27;5.95;;;;;;;21.57;76.26;100731.71;1670446;83;21259;-79
2021/07/21 06:40:20;;;;;;;9.23;5.08;;;;;;;21.64;75.43;100739.78;1649163;87;38477;-80
2021/07/21 06:42:47;;;;;;;8.88;4.67;;;;;;;21.73;75.43;100732.14;1668965;84;21470;-86
2021/07/21 06:45:15;;;;;;;6.12;4.37;;;;;;;21.80;73.76;100734.44;1681891;84;21022;-85
2021/07/21 06:47:43;;;;;;;10.95;5.25;;;;;;;21.79;74.04;100730.17;1694938;83;21585;-80
2021/07/21 06:50:15;;;;;;;9.73;5.25;;;;;;;21.85;74.02;100744.50;1687059;83;21158;-78
2021/07/21 06:52:42;;;;;;;8.38;4.33;;;;;;;21.91;74.33;100735.91;1682270;83;21026;-81
2021/07/21 06:55:11;;;;;;;8.08;4.35;;;;;;;22.05;73.56;100735.16;1695111;83;21070;-82
2021/07/21 06:57:43;;;;;;;13.78;4.65;;;;;;;22.18;72.10;100741.23;1701974;83;20983;-81
2021/07/21 07:00:20;;;;;;;10.40;4.47;;;;;;;22.16;72.09;100751.97;1632721;85;21135;-80
2021/07/21 07:03:05;;;;;;;11.78;4.67;;;;;;;22.14;71.95;100748.69;1691779;83;21138;-86
2021/07/21 07:05:38;;;;;;;8.35;4.75;;;;;;;22.21;71.77;100746.17;1704882;81;21162;-83
2021/07/21 07:08:25;;;;;;;7.47;4.05;;;;;;;22.37;71.72;100751.36;1685877;81;21127;-84
2021/07/21 07:11:02;;;;;;;11.88;4.40;;;;;;;22.57;71.81;100756.00;1603084;87;22018;-81
2021/07/21 07:13:29;;;;;;;7.67;4.28;;;;;;;22.78;69.68;100753.24;1679087;83;20987;-80
2021/07/21 07:15:55;;;;;;;8.75;4.70;;;;;;;22.80;68.70;100754.70;1706037;81;21120;-81
2021/07/21 07:18:22;;;;;;;8.98;4.95;;;;;;;22.75;68.58;100753.07;1708635;81;21035;-80
2021/07/21 07:20:50;;;;;;;6.92;4.50;;;;;;;22.75;68.74;100754.39;1704079;81;21204;-78
2021/07/21 07:23:17;;;;;;;10.43;4.30;;;;;;;22.71;67.81;100747.01;1701818;82;21034;-83
2021/07/21 07:25:44;;;;;;;10.23;4.22;;;;;;;22.61;68.12;100754.66;1701038;81;21648;-84
2021/07/21 07:28:12;;;;;;;10.10;4.60;;;;;;;22.53;68.48;100751.22;1706760;81;21699;-86
2021/07/21 07:30:38;;;;;;;8.53;4.33;;;;;;;22.47;69.31;100755.90;1677570;82;21213;-82
2021/07/21 07:33:08;;;;;;;9.10;4.40;;;;;;;22.53;68.32;100761.31;1681137;81;21085;-84
2021/07/21 07:35:36;;;;;;;14.60;4.28;;;;;;;22.60;69.39;100768.05;1710278;81;21077;-79
2021/07/21 07:38:03;;;;;;;8.33;4.33;;;;;;;22.69;67.86;100763.05;1691201;82;21137;-80
2021/07/21 07:40:30;;;;;;;8.80;4.70;;;;;;;22.70;68.10;100766.02;1682613;83;22344;-81
2021/07/21 07:42:57;;;;;;;21.42;4.50;;;;;;;22.73;67.05;100766.98;1695973;81;21085;-81
2021/07/21 07:45:27;;;;;;;9.95;4.20;;;;;;;;;;1693846;83;21015;-80
2021/07/21 07:47:54;;;;;;;8.85;4.30;;;;;;;22.65;67.57;100762.57;1703801;81;21007;-82
2021/07/21 07:50:20;;;;;;;6.42;4.08;;;;;;;22.66;67.15;100760.26;1703732;81;21046;-82
2021/07/21 07:52:47;;;;;;;10.63;4.25;;;;;;;22.75;67.13;100757.05;1708292;81;21137;-77
2021/07/21 07:55:15;;;;;;;12.43;4.72;;;;;;;22.84;67.22;100756.00;1691419;82;21122;-79
2021/07/21 07:57:42;;;;;;;6.78;4.53;;;;;;;22.93;67.45;100756.75;1702350;81;21550;-83
2021/07/21 08:00:10;;;;;;;7.80;3.60;;;;;;;23.05;66.53;100768.05;1706572;81;21086;-77
2021/07/21 08:02:40;;;;;;;7.55;4.15;;;;;;;23.04;65.69;100765.07;1691089;83;21085;-80
2021/07/21 08:05:08;;;;;;;7.72;3.87;;;;;;;23.10;65.33;100763.02;1694574;83;21819;-84
2021/07/21 08:07:35;;;;;;;7.58;4.00;;;;;;;23.15;65.95;100755.39;1676902;83;21110;-73
2021/07/21 08:10:04;;;;;;;7.10;4.15;;;;;;;23.20;65.12;100754.33;1682041;83;21047;-79
2021/07/21 08:12:32;;;;;;;5.85;4.12;;;;;;;23.29;65.82;100738.37;1659136;84;21114;-82
2021/07/21 08:14:59;;;;;;;7.42;4.50;;;;;;;23.34;64.14;100752.70;1699091;83;21051;-78
2021/07/21 08:17:26;;;;;;;10.98;4.53;;;;;;;23.26;64.24;100745.36;1697776;83;21253;-82
2021/07/21 08:19:53;;;;;;;14.20;4.47;;;;;;;23.22;64.60;100754.66;1707473;83;21002;-85
2021/07/21 08:22:21;;;;;;;11.15;4.53;;;;;;;23.28;64.63;100757.41;1690132;83;21119;-80
2021/07/21 08:24:48;;;;;;;8.28;4.55;;;;;;;23.31;64.89;100755.72;1648186;86;21134;-85
2021/07/21 08:27:15;;;;;;;10.95;4.15;;;;;;;23.29;64.21;100744.50;1689631;83;21117;-83
2021/07/21 08:29:42;;;;;;;8.13;4.33;;;;;;;23.32;65.06;100743.30;1693476;84;21161;-82
2021/07/21 08:32:09;;;;;;;8.33;4.05;;;;;;;23.49;63.52;100755.39;1669394;83;21071;-83
2021/07/21 08:34:36;;;;;;;11.48;4.40;;;;;;;23.52;63.34;100745.25;1693693;83;21091;-83
2021/07/21 08:37:03;;;;;;;12.23;4.25;;;;;;;23.56;63.35;100747.03;1691351;83;21107;-78
2021/07/21 08:39:30;;;;;;;7.47;4.00;;;;;;;23.61;63.02;100747.33;1697971;83;21185;-82
2021/07/21 08:41:59;;;;;;;9.18;4.00;;;;;;;23.68;62.34;100748.20;1673445;83;21078;-78
2021/07/21 08:44:25;;;;;;;13.43;4.22;;;;;;;23.76;60.94;100748.63;1685438;83;21101;-79
2021/07/21 08:46:52;;;;;;;12.85;4.08;;;;;;;23.76;62.10;100749.45;1693395;83;21141;-81
2021/07/21 08:49:19;;;;;;;7.83;3.72;;;;;;;23.83;62.33;100741.59;1691350;83;21137;-81
2021/07/21 08:51:46;;;;;;;13.68;3.60;;;;;;;23.87;62.13;100746.84;1690939;83;21162;-83
2021/07/21 08:54:16;;;;;;;8.30;3.98;;;;;;;23.96;61.51;100729.83;1691032;83;21185;-78
2021/07/21 08:56:45;;;;;;;12.70;3.45;;;;;;;24.01;61.05;100734.05;1692813;83;21098;-82
2021/07/21 08:59:17;;;;;;;6.72;3.42;;;;;;;23.98;60.73;100731.28;1694490;83;21597;-81
2021/07/21 09:01:44;;;;;;;6.90;3.33;;;;;;;24.05;60.34;100737.98;1690362;83;21086;-81
2021/07/21 09:04:10;;;;;;;10.75;3.87;;;;;;;24.15;60.06;100727.41;1662725;83;21188;-79
2021/07/21 09:06:39;;;;;;;6.75;3.33;;;;;;;24.27;59.22;100738.86;1694213;83;21796;-84
2021/07/21 09:09:06;;;;;;;6.28;3.40;;;;;;;24.29;59.05;100735.00;1695177;83;21103;-84
2021/07/21 09:11:33;;;;;;;10.53;4.00;;;;;;;24.33;59.38;100730.97;1653158;86;21121;-80
2021/07/21 09:14:00;;;;;;;8.85;4.50;;;;;;;24.45;60.59;100736.09;1689238;83;21081;-81
2021/07/21 09:16:28;;;;;;;6.28;3.83;;;;;;;24.63;59.18;100731.16;1692754;83;21079;-80
2021/07/21 09:19:00;;;;;;;8.90;3.92;;;;;;;24.70;58.82;100733.86;1686985;83;21121;-81
2021/07/21 09:21:25;;;;;;;5.25;3.95;;;;;;;24.76;58.55;100727.82;1700309;83;21061;-83
2021/07/21 09:23:57;;;;;;;7.95;3.85;;;;;;;24.82;57.96;100731.06;1681226;83;21691;-81
2021/07/21 09:26:36;;;;;;;4.08;3.60;;;;;;;24.86;58.17;100730.18;1706996;82;21154;-81
2021/07/21 09:29:02;;;;;;;8.05;4.00;;;;;;;24.96;57.45;100736.77;1693058;83;21133;-84
2021/07/21 09:31:33;;;;;;;6.35;3.55;;;;;;;25.02;58.15;100735.17;1700822;81;21180;-79
2021/07/21 09:34:18;;;;;;;11.75;4.80;;;;;;;25.13;56.09;100742.13;1704252;82;21078;-80
2021/07/21 09:36:45;;;;;;;13.00;3.90;;;;;;;25.15;55.24;100741.41;1713574;81;21197;-84
2021/07/21 09:39:13;;;;;;;12.00;4.05;;;;;;;25.16;55.55;100732.94;1714697;81;21102;-82
2021/07/21 09:41:52;;;;;;;7.85;4.30;;;;;;;25.20;56.13;100736.36;1681545;83;21170;-83
2021/07/21 09:44:33;;;;;;;10.93;4.20;;;;;;;25.33;55.47;100738.28;1692431;82;21593;-83
2021/07/21 09:47:16;;;;;;;8.95;4.17;;;;;;;25.51;55.67;100738.61;1706175;82;21105;-84
2021/07/21 09:49:43;;;;;;;;;;;;;;;25.73;54.74;100734.84;1709851;81;21092;-82
2021/07/21 09:52:22;;;;;;;11.95;4.00;;;;;;;25.79;54.29;100738.53;1700982;81;20221;-83
2021/07/21 09:55:14;;;;;;;10.93;4.55;;;;;;;25.72;51.73;100731.86;1710285;81;21593;-81
2021/07/21 09:57:45;;;;;;;8.30;4.50;;;;;;;25.59;52.21;100738.44;1695567;81;21089;-80
2021/07/21 10:00:23;;;;;;;12.78;4.17;;;;;;;25.55;53.43;100741.20;1676985;83;21510;-81
2021/07/21 10:02:53;;;;;;;8.15;4.45;;;;;;;25.64;54.01;100724.06;1706683;81;21126;-85
2021/07/21 10:05:20;;;;;;;12.18;4.28;;;;;;;26.12;51.56;100739.48;1702004;81;21070;-82
2021/07/21 10:07:51;;;;;;;10.23;4.62;;;;;;;26.64;49.82;100744.13;1699895;81;21580;-77
2021/07/21 10:10:22;;;;;;;9.95;4.78;;;;;;;27.02;49.30;100749.70;1704541;81;21143;-80
2021/07/21 10:13:07;;;;;;;5.83;4.12;;;;;;;27.19;48.73;100729.57;1710814;81;21371;-79
2021/07/21 10:15:34;;;;;;;7.60;4.65;;;;;;;27.09;48.98;100741.70;1708314;82;21052;-77
2021/07/21 10:18:07;;;;;;;6.67;4.65;;;;;;;27.10;49.46;100727.33;1698731;83;21130;-82
2021/07/21 10:20:34;;;;;;;7.42;4.20;;;;;;;27.21;48.67;100732.87;1679788;82;21085;-81
2021/07/21 10:23:01;;;;;;;8.48;4.33;;;;;;;27.22;49.88;100730.48;1688543;83;21128;-85
2021/07/21 10:25:30;;;;;;;6.78;3.83;;;;;;;27.29;49.07;100732.64;1689314;83;21061;-81
2021/07/21 10:27:58;;;;;;;7.65;4.22;;;;;;;27.10;48.76;100713.50;1697206;84;21101;-81
2021/07/21 10:30:27;;;;;;;7.70;4.60;;;;;;;27.05;48.82;100715.98;1648869;82;21170;-84
2021/07/21 10:32:55;;;;;;;12.50;5.22;;;;;;;26.91;49.44;100715.67;1696270;83;21605;-82
2021/07/21 10:35:28;;;;;;;7.53;4.20;;;;;;;26.75;49.57;100721.38;1698713;83;21143;-88
2021/07/21 10:37:57;;;;;;;9.45;4.10;;;;;;;26.69;51.11;100708.89;1708386;83;21652;-81
2021/07/21 10:40:28;;;;;;;8.55;4.12;;;;;;;26.77;49.77;100719.36;1666372;84;21094;-86
2021/07/21 10:42:59;;;;;;;5.85;4.50;;;;;;;26.81;50.02;100719.27;1688829;83;21070;-82
2021/07/21 10:45:33;;;;;;;9.68;4.00;;;;;;;26.75;49.59;100709.41;1700145;83;21114;-80
2021/07/21 10:48:19;;;;;;;11.95;4.17;;;;;;;26.66;49.62;100701.31;1694086;83;21204;-80
2021/07/21 10:59:18;;;;;;;10.60;4.60;;;;;;;26.90;48.37;100698.05;1700752;83;21060;-83
2021/07/21 11:02:01;;;;;;;11.95;3.98;;;;;;;26.68;48.87;100713.39;1697073;83;21095;-82
2021/07/21 11:04:47;;;;;;;9.75;4.33;;;;;;;26.73;48.71;100714.13;1663219;83;21691;-77
2021/07/21 11:07:16;;;;;;;13.15;3.87;;;;;;;26.79;48.09;100704.80;1660435;83;21258;-80
2021/07/21 11:09:48;;;;;;;9.48;3.70;;;;;;;26.89;48.24;100700.94;1656575;84;21149;-83
2021/07/21 11:12:14;;;;;;;9.33;4.50;;;;;;;27.02;48.70;100702.26;1660378;83;21690;-79
2021/07/21 11:14:41;;;;;;;11.68;4.10;;;;;;;27.07;47.68;100709.92;1666004;83;21118;-75
2021/07/21 11:17:11;;;;;;;9.20;3.85;;;;;;;27.12;46.99;100698.66;1697050;81;21121;-80
2021/07/21 11:19:47;;;;;;;7.12;4.00;;;;;;;27.19;47.10;100700.77;1700586;81;21058;-84
2021/07/21 11:22:25;;;;;;;9.65;4.00;;;;;;;27.25;46.84;100698.64;1715351;81;21261;-81
2021/07/21 11:25:15;;;;;;;6.00;4.28;;;;;;;27.20;48.03;100705.08;1702276;81;21707;-80
2021/07/21 11:27:55;;;;;;;7.12;3.60;;;;;;;27.23;47.49;100715.33;1684246;83;21193;-82
2021/07/21 11:31:02;;;;;;;11.55;4.40;;;;;;;27.30;48.11;100699.64;1689961;83;20964;-79
2021/07/21 11:34:06;;;;;;;6.72;3.58;;;;;;;27.42;47.33;100684.31;1696834;81;21063;-83
2021/07/21 11:36:47;;;;;;;11.85;4.37;;;;;;;27.51;46.81;100687.91;1673659;83;21620;-82
2021/07/21 11:39:52;;;;;;;7.95;3.85;;;;;;;27.54;47.07;100702.14;1692473;83;21730;-82
2021/07/21 11:45:13;;;;;;;12.82;4.25;;;;;;;27.54;46.45;100697.35;1690913;83;21141;-88
2021/07/21 11:47:56;;;;;;;8.58;3.62;;;;;;;27.48;47.36;100702.98;1695388;83;21110;-80
2021/07/21 11:50:30;;;;;;;4.83;3.70;;;;;;;27.46;45.78;100699.72;1692045;83;21016;-79
2021/07/21 11:53:04;;;;;;;6.37;3.72;;;;;;;27.37;46.94;100697.47;1683439;83;21111;-82